Time;durP1;ratioP1;P1;durP2;ratioP2;P2;SDS_P1;SDS_P2;PMS_P1;PMS_P2;Temp;Humidity;BMP_temperature;BMP_pressure;BME280_temperature;BME280_humidity;BME280_pressure;Samples;Min_cycle;Max_cycle;Signal;HPM_P1;HPM_P2
2022/01/09 00:00:13;;;;;;;4.72;1.45;;;11.20;99.90;;;;;;5042087;28;20411;-79
2022/01/09 00:02:39;;;;;;;7.38;1.48;;;11.10;99.90;;;;;;5042741;28;20527;-79
2022/01/09 00:05:06;;;;;;;3.03;1.15;;;11.20;99.90;;;;;;5042753;28;20116;-79
2022/01/09 00:07:32;;;;;;;5.68;1.65;;;11.10;99.60;;;;;;5042561;28;20170;-79
2022/01/09 00:09:57;;;;;;;3.58;1.10;;;11.10;99.60;;;;;;5037279;28;20024;-79
2022/01/09 00:12:24;;;;;;;6.18;1.30;;;11.20;99.50;;;;;;5041083;28;20029;-79
2022/01/09 00:14:50;;;;;;;4.32;1.20;;;11.20;99.00;;;;;;5042422;28;20035;-79
2022/01/09 00:17:16;;;;;;;4.57;1.13;;;11.20;98.90;;;;;;5041568;28;20037;-78
2022/01/09 00:19:42;;;;;;;3.88;1.20;;;11.20;99.20;;;;;;5041494;28;20506;-79
2022/01/09 00:22:08;;;;;;;4.75;1.20;;;11.20;99.30;;;;;;5042445;28;20037;-79
2022/01/09 00:24:34;;;;;;;7.03;1.10;;;11.20;99.10;;;;;;5041535;28;20017;-79
2022/01/09 00:26:59;;;;;;;3.88;1.13;;;11.20;98.90;;;;;;5041147;28;20100;-78
2022/01/09 00:29:25;;;;;;;3.45;1.00;;;11.20;98.90;;;;;;5048283;28;20029;-80
2022/01/09 00:31:51;;;;;;;5.07;1.70;;;11.20;98.70;;;;;;5039912;28;20047;-79
2022/01/09 00:34:16;;;;;;;5.60;1.65;;;11.20;98.70;;;;;;5043382;28;20557;-79
2022/01/09 00:36:42;;;;;;;4.93;1.33;;;11.20;98.70;;;;;;5042610;28;20507;-79
2022/01/09 00:39:08;;;;;;;3.95;1.52;;;11.20;98.50;;;;;;5041217;28;20423;-79
2022/01/09 00:41:33;;;;;;;5.55;1.42;;;11.10;98.40;;;;;;5037527;28;20338;-78
2022/01/09 00:43:59;;;;;;;4.25;1.25;;;11.10;98.60;;;;;;5043494;28;20041;-79
2022/01/09 00:46:25;;;;;;;1.83;0.90;;;11.10;98.30;;;;;;5046209;28;20464;-79
2022/01/09 00:48:51;;;;;;;2.90;1.02;;;11.20;97.70;;;;;;5042589;28;20569;-79
2022/01/09 00:51:17;;;;;;;3.28;0.90;;;11.10;97.70;;;;;;5041612;28;20116;-80
2022/01/09 00:53:42;;;;;;;1.95;1.10;;;11.10;98.00;;;;;;5042597;28;20549;-79
2022/01/09 00:56:08;;;;;;;2.28;1.02;;;11.10;97.60;;;;;;5044367;28;20144;-79
2022/01/09 00:58:34;;;;;;;2.88;1.00;;;11.10;97.50;;;;;;5049145;28;20126;-79
2022/01/09 01:01:00;;;;;;;1.63;0.90;;;11.20;97.30;;;;;;5045735;28;20131;-79
2022/01/09 01:03:26;;;;;;;3.30;0.93;;;11.20;96.80;;;;;;5048153;28;20104;-79
2022/01/09 01:05:52;;;;;;;1.98;0.70;;;11.30;96.10;;;;;;5048822;28;20120;-79
2022/01/09 01:08:18;;;;;;;2.72;0.80;;;11.30;96.10;;;;;;5048119;28;20033;-79
2022/01/09 01:10:44;;;;;;;1.58;0.88;;;11.30;95.30;;;;;;5051361;28;20025;-80
2022/01/09 01:13:10;;;;;;;4.00;0.90;;;11.40;94.40;;;;;;5050826;28;20438;-79
2022/01/09 01:15:36;;;;;;;3.80;1.00;;;11.50;94.10;;;;;;5048987;28;20605;-79
2022/01/09 01:18:02;;;;;;;3.92;1.13;;;11.70;92.30;;;;;;5048478;28;20024;-79
2022/01/09 01:20:29;;;;;;;7.90;1.23;;;11.70;91.30;;;;;;5048934;28;20462;-79
2022/01/09 01:22:57;;;;;;;4.43;1.10;;;11.80;89.80;;;;;;5049553;28;20553;-79
2022/01/09 01:25:23;;;;;;;4.85;1.13;;;11.90;89.50;;;;;;5052347;28;20053;-79
2022/01/09 01:27:49;;;;;;;4.05;1.13;;;11.90;87.60;;;;;;5049499;28;20104;-79
2022/01/09 01:30:15;;;;;;;4.95;1.30;;;11.90;88.00;;;;;;5048925;28;20395;-79
2022/01/09 01:32:42;;;;;;;3.25;1.20;;;11.90;89.10;;;;;;5046571;28;20075;-78
2022/01/09 01:35:09;;;;;;;9.30;1.40;;;11.90;88.40;;;;;;5052366;28;20108;-79
2022/01/09 01:37:38;;;;;;;7.72;1.60;;;11.80;88.20;;;;;;5052040;28;20029;-80
2022/01/09 01:40:07;;;;;;;5.22;1.40;;;11.90;85.60;;;;;;5053201;28;20079;-80
2022/01/09 01:42:33;;;;;;;4.90;1.10;;;11.90;86.20;;;;;;5052634;28;20523;-78
2022/01/09 01:44:58;;;;;;;5.32;1.70;;;12.00;85.80;;;;;;5052211;28;20079;-78
2022/01/09 01:47:24;;;;;;;7.38;1.48;;;12.00;81.80;;;;;;5051965;28;20033;-79
2022/01/09 01:49:50;;;;;;;10.35;2.63;;;12.00;80.20;;;;;;5052254;28;20400;-80
2022/01/09 01:52:21;;;;;;;7.28;1.60;;;12.10;79.70;;;;;;5051960;28;20029;-79
2022/01/09 01:54:46;;;;;;;5.75;1.52;;;12.10;78.10;;;;;;5050936;28;20032;-79
2022/01/09 01:57:12;;;;;;;9.82;1.77;;;12.10;81.70;;;;;;5051759;28;20028;-79
2022/01/09 01:59:38;;;;;;;7.43;1.67;;;12.10;80.10;;;;;;5051298;28;20040;-78
2022/01/09 02:02:04;;;;;;;7.50;1.83;;;12.00;79.50;;;;;;5052088;28;20017;-79
2022/01/09 02:04:30;;;;;;;6.75;1.92;;;12.00;78.80;;;;;;5051416;28;20025;-79
2022/01/09 02:06:56;;;;;;;5.97;1.73;;;12.00;78.50;;;;;;5052829;28;20143;-79
2022/01/09 02:09:24;;;;;;;9.75;1.58;;;12.00;79.20;;;;;;5051216;28;20033;-79
2022/01/09 02:11:50;;;;;;;10.60;2.35;;;11.90;79.60;;;;;;5051416;28;20562;-79
2022/01/09 02:14:16;;;;;;;8.80;1.60;;;11.90;79.40;;;;;;5051011;28;20144;-79
2022/01/09 02:16:43;;;;;;;6.50;1.65;;;11.90;79.50;;;;;;5051097;28;20032;-79
2022/01/09 02:19:14;;;;;;;11.48;2.00;;;11.90;79.80;;;;;;5052169;28;20029;-79
2022/01/09 02:21:41;;;;;;;11.70;1.85;;;11.90;79.40;;;;;;5054090;28;20028;-79
2022/01/09 02:24:06;;;;;;;8.43;1.67;;;11.90;78.90;;;;;;5053322;28;20028;-79
2022/01/09 02:26:32;;;;;;;8.52;2.00;;;12.00;79.40;;;;;;5050239;28;20041;-80
2022/01/09 02:28:57;;;;;;;10.85;2.58;;;11.90;80.00;;;;;;5050759;28;20029;-79
2022/01/09 02:31:24;;;;;;;10.07;2.75;;;11.90;79.70;;;;;;5050344;28;20439;-79
2022/01/09 02:33:50;;;;;;;9.88;2.03;;;11.90;79.60;;;;;;5052683;28;20028;-79
2022/01/09 02:36:17;;;;;;;10.50;2.15;;;11.80;79.80;;;;;;5050043;28;20033;-79
2022/01/09 02:38:42;;;;;;;10.82;2.30;;;11.80;79.20;;;;;;5050534;28;20025;-79
2022/01/09 02:41:08;;;;;;;7.10;1.60;;;11.80;79.00;;;;;;5050381;28;20394;-79
2022/01/09 02:43:34;;;;;;;8.65;1.75;;;11.80;80.30;;;;;;5049919;28;20078;-79
2022/01/09 02:48:52;;;;;;;7.63;1.80;;;11.60;80.00;;;;;;5048868;28;20048;-79
2022/01/09 02:51:18;;;;;;;6.80;1.30;;;11.60;80.60;;;;;;5047395;28;20033;-79
2022/01/09 02:53:47;;;;;;;6.28;1.45;;;11.60;81.00;;;;;;5047343;28;20096;-79
2022/01/09 02:56:14;;;;;;;5.68;1.55;;;11.50;81.70;;;;;;5047369;28;20036;-79
2022/01/09 02:58:41;;;;;;;7.82;1.63;;;11.50;81.60;;;;;;5047389;28;20029;-77
2022/01/09 03:01:10;;;;;;;7.70;1.65;;;11.40;82.40;;;;;;5044800;28;20049;-79
2022/01/09 03:03:36;;;;;;;5.30;1.20;;;11.30;82.60;;;;;;5048880;28;20053;-79
2022/01/09 03:06:02;;;;;;;5.43;1.33;;;11.30;82.60;;;;;;5047905;28;20051;-79
2022/01/09 03:08:28;;;;;;;6.93;1.80;;;11.30;81.90;;;;;;5046671;28;20028;-79
2022/01/09 03:10:54;;;;;;;5.32;1.30;;;11.30;82.40;;;;;;5047438;28;20037;-79
2022/01/09 03:13:20;;;;;;;6.03;1.40;;;11.30;83.00;;;;;;5047831;28;20040;-78
2022/01/09 03:15:46;;;;;;;6.85;1.52;;;11.30;82.10;;;;;;5049555;28;20029;-79
2022/01/09 03:18:12;;;;;;;5.15;1.30;;;11.20;82.50;;;;;;5046901;28;20254;-79
2022/01/09 03:20:39;;;;;;;5.82;1.20;;;11.20;85.20;;;;;;5047262;28;20067;-79
2022/01/09 03:23:05;;;;;;;4.90;1.38;;;11.10;83.20;;;;;;5047376;28;20029;-78
2022/01/09 03:25:31;;;;;;;4.75;1.33;;;11.10;83.30;;;;;;5047153;28;20086;-79
2022/01/09 03:27:58;;;;;;;6.90;1.30;;;11.10;82.60;;;;;;5047807;28;20116;-78
2022/01/09 03:30:25;;;;;;;7.65;1.45;;;11.20;82.60;;;;;;5048355;28;20424;-78
2022/01/09 03:32:52;;;;;;;4.68;1.17;;;11.10;75.70;;;;;;5047789;28;20021;-80
2022/01/09 03:35:21;;;;;;;5.90;1.80;;;11.30;77.40;;;;;;5048521;28;20029;-79
2022/01/09 03:37:48;;;;;;;4.22;1.20;;;11.30;73.70;;;;;;5048537;28;20021;-79
2022/01/09 03:40:21;;;;;;;4.15;1.10;;;11.30;65.70;;;;;;5050313;28;20036;-79
2022/01/09 03:42:48;;;;;;;4.15;1.23;;;11.30;63.20;;;;;;5049913;28;20112;-80
2022/01/09 03:45:15;;;;;;;6.03;1.25;;;11.30;61.40;;;;;;5047951;28;20032;-79
2022/01/09 03:47:40;;;;;;;3.30;1.00;;;11.20;61.00;;;;;;5047830;28;20040;-79
2022/01/09 03:50:08;;;;;;;5.70;1.13;;;11.30;60.70;;;;;;5048059;28;20017;-79
2022/01/09 03:52:37;;;;;;;4.80;0.90;;;11.30;61.70;;;;;;5047961;28;20029;-79
2022/01/09 03:55:04;;;;;;;2.83;1.17;;;11.20;61.50;;;;;;5051051;28;20489;-79
2022/01/09 03:57:29;;;;;;;5.53;1.30;;;11.20;61.40;;;;;;5062621;28;20642;-79
2022/01/09 03:59:57;;;;;;;3.90;1.13;;;11.20;61.30;;;;;;5055717;28;20060;-79
2022/01/09 04:02:22;;;;;;;5.65;1.15;;;11.20;64.60;;;;;;5047898;28;20029;-78
2022/01/09 04:04:48;;;;;;;5.47;1.33;;;11.20;67.40;;;;;;5047804;28;20037;-79
2022/01/09 04:07:16;;;;;;;5.10;1.27;;;11.10;67.90;;;;;;5050041;28;20125;-79
2022/01/09 04:09:44;;;;;;;2.85;1.10;;;11.00;68.50;;;;;;5048803;28;20032;-78
2022/01/09 04:12:17;;;;;;;5.20;1.40;;;11.00;68.10;;;;;;5048090;28;20025;-79
2022/01/09 04:14:46;;;;;;;5.45;1.40;;;10.90;70.70;;;;;;5048253;28;20033;-79
2022/01/09 04:17:19;;;;;;;5.65;1.20;;;10.90;71.50;;;;;;5055544;28;20507;-79
2022/01/09 04:19:45;;;;;;;5.25;1.30;;;10.80;71.70;;;;;;5051937;28;20061;-79
2022/01/09 04:22:11;;;;;;;5.82;1.25;;;10.70;72.70;;;;;;5054109;28;20499;-80
2022/01/09 04:24:37;;;;;;;7.03;1.20;;;10.70;73.10;;;;;;5052625;28;20127;-79
2022/01/09 04:27:03;;;;;;;5.93;1.50;;;10.70;74.00;;;;;;5051426;28;20029;-79
2022/01/09 04:29:28;;;;;;;4.85;1.30;;;10.70;74.70;;;;;;5051951;28;20101;-79
2022/01/09 04:31:54;;;;;;;5.43;1.17;;;10.60;75.30;;;;;;5051055;28;20025;-79
2022/01/09 04:34:20;;;;;;;3.50;1.30;;;10.50;74.90;;;;;;5053284;28;20074;-79
2022/01/09 04:36:45;;;;;;;4.38;1.10;;;10.50;76.20;;;;;;5053585;28;20033;-79
2022/01/09 04:39:11;;;;;;;5.43;1.20;;;10.40;76.00;;;;;;5051230;28;20025;-79
2022/01/09 04:41:37;;;;;;;6.43;1.45;;;10.50;76.00;;;;;;5051505;28;20045;-79
2022/01/09 04:44:03;;;;;;;4.95;1.15;;;10.40;75.80;;;;;;5051265;28;20440;-79
2022/01/09 04:46:39;;;;;;;6.90;1.50;;;10.40;76.70;;;;;;5051406;28;20040;-79
2022/01/09 04:49:05;;;;;;;7.70;1.33;;;10.30;76.50;;;;;;5054253;28;20028;-79
2022/01/09 04:51:30;;;;;;;4.85;1.30;;;10.30;76.00;;;;;;5050550;28;20573;-79
2022/01/09 04:53:56;;;;;;;5.93;1.23;;;10.30;75.90;;;;;;5054080;28;20102;-79
2022/01/09 04:56:22;;;;;;;5.55;1.27;;;10.20;75.80;;;;;;5051523;28;20388;-79
2022/01/09 04:58:47;;;;;;;5.10;1.63;;;10.20;75.90;;;;;;5050867;28;20136;-79
2022/01/09 05:01:13;;;;;;;3.80;1.15;;;10.10;76.60;;;;;;5052953;28;20056;-79
2022/01/09 05:03:39;;;;;;;5.25;1.25;;;10.10;78.30;;;;;;5052164;28;20410;-78
2022/01/09 05:06:04;;;;;;;4.65;1.27;;;10.00;77.20;;;;;;5050754;28;20053;-79
2022/01/09 05:08:30;;;;;;;5.95;1.38;;;10.00;77.40;;;;;;5050744;28;20025;-79
2022/01/09 05:10:56;;;;;;;8.43;1.33;;;9.90;77.90;;;;;;5051231;28;20032;-79
2022/01/09 05:13:22;;;;;;;6.32;1.40;;;9.80;78.60;;;;;;5052258;28;20054;-79
2022/01/09 05:15:48;;;;;;;5.07;1.45;;;9.80;78.40;;;;;;5052304;28;20029;-79
2022/01/09 05:18:15;;;;;;;6.45;1.77;;;9.70;78.20;;;;;;5050884;28;20025;-79
2022/01/09 05:20:44;;;;;;;7.57;2.35;;;9.70;79.50;;;;;;5050659;28;20043;-79
2022/01/09 05:23:10;;;;;;;6.95;2.25;;;9.60;79.80;;;;;;5050666;28;20029;-79
2022/01/09 05:25:36;;;;;;;5.80;1.77;;;9.60;79.60;;;;;;5050596;28;20407;-79
2022/01/09 05:28:02;;;;;;;6.10;1.70;;;9.70;79.60;;;;;;5053111;28;20033;-79
2022/01/09 05:30:28;;;;;;;5.90;1.90;;;9.70;79.50;;;;;;5052781;28;20442;-79
2022/01/09 05:32:54;;;;;;;5.63;1.42;;;9.70;79.70;;;;;;5050012;28;20023;-80
2022/01/09 05:35:19;;;;;;;7.97;1.50;;;9.80;79.30;;;;;;5050674;28;20395;-80
2022/01/09 05:37:45;;;;;;;5.90;1.50;;;9.80;79.40;;;;;;5050533;28;20029;-79
2022/01/09 05:40:11;;;;;;;5.95;1.30;;;9.70;79.50;;;;;;5053344;28;20049;-79
2022/01/09 05:42:37;;;;;;;7.03;1.70;;;9.70;80.20;;;;;;5050806;28;20103;-79
2022/01/09 05:45:05;;;;;;;6.32;1.70;;;9.60;80.30;;;;;;5050126;28;20121;-79
2022/01/09 05:47:30;;;;;;;6.30;1.60;;;9.60;81.20;;;;;;5050119;28;20403;-79
2022/01/09 05:49:56;;;;;;;6.63;1.80;;;9.60;81.30;;;;;;5050529;28;20013;-79
2022/01/09 05:52:22;;;;;;;6.43;2.08;;;9.60;82.30;;;;;;5051608;28;20416;-79
2022/01/09 05:54:48;;;;;;;5.68;1.80;;;9.60;81.40;;;;;;5052101;28;20029;-79
2022/01/09 05:57:14;;;;;;;8.00;2.13;;;9.60;81.40;;;;;;5049770;28;20490;-79
2022/01/09 05:59:40;;;;;;;8.07;1.50;;;9.50;81.40;;;;;;5050289;28;20084;-79
2022/01/09 06:02:06;;;;;;;6.80;1.70;;;9.50;82.30;;;;;;5049835;28;20025;-79
2022/01/09 06:04:31;;;;;;;6.38;1.60;;;9.50;81.80;;;;;;5049989;28;20025;-79
2022/01/09 06:06:57;;;;;;;7.35;1.50;;;9.50;81.70;;;;;;5053077;28;20514;-79
2022/01/09 06:09:23;;;;;;;4.93;1.40;;;9.40;81.80;;;;;;5051716;28;20127;-79
2022/01/09 06:11:49;;;;;;;5.70;1.65;;;9.30;83.60;;;;;;5049364;28;20502;-79
2022/01/09 06:14:15;;;;;;;7.65;2.00;;;9.30;82.60;;;;;;5049537;28;20017;-79
2022/01/09 06:16:41;;;;;;;6.03;1.42;;;9.20;84.00;;;;;;5049869;28;20029;-79
2022/01/09 06:19:07;;;;;;;7.00;1.60;;;9.10;83.60;;;;;;5052532;28;20541;-79
2022/01/09 06:21:33;;;;;;;7.50;1.60;;;9.10;83.80;;;;;;5050430;28;20522;-79
2022/01/09 06:23:58;;;;;;;5.78;1.45;;;8.90;84.50;;;;;;5049280;28;20025;-79
2022/01/09 06:26:24;;;;;;;9.52;2.60;;;8.90;84.40;;;;;;5049188;28;20099;-79
2022/01/09 06:28:50;;;;;;;5.95;1.95;;;9.00;84.00;;;;;;5049599;28;20018;-79
2022/01/09 06:31:16;;;;;;;5.82;1.63;;;9.00;83.80;;;;;;5051478;28;20041;-80
2022/01/09 06:33:41;;;;;;;7.07;2.00;;;8.80;84.50;;;;;;5050523;28;20021;-79
2022/01/09 06:36:07;;;;;;;6.28;1.73;;;8.80;85.00;;;;;;5049560;28;20060;-79
2022/01/09 06:38:33;;;;;;;8.57;2.45;;;8.80;85.00;;;;;;5049127;28;20028;-79
2022/01/09 06:40:59;;;;;;;6.28;2.30;;;8.90;84.90;;;;;;5048234;28;20075;-79
2022/01/09 06:43:24;;;;;;;10.30;2.95;;;8.70;86.80;;;;;;5050242;28;20029;-80
2022/01/09 06:45:50;;;;;;;8.70;2.58;;;8.70;85.90;;;;;;5051581;28;20036;-79
2022/01/09 06:48:16;;;;;;;11.63;2.92;;;8.70;85.70;;;;;;5049210;28;20484;-79
2022/01/09 06:50:42;;;;;;;9.80;2.40;;;8.60;87.90;;;;;;5049066;28;20420;-79
2022/01/09 06:53:07;;;;;;;5.72;2.00;;;8.70;86.70;;;;;;5049007;28;20024;-79
2022/01/09 06:55:33;;;;;;;7.15;2.20;;;8.70;86.90;;;;;;5049037;28;20032;-79
2022/01/09 06:57:59;;;;;;;6.95;2.10;;;8.70;86.60;;;;;;5051975;28;20155;-79
2022/01/09 07:00:24;;;;;;;5.25;2.13;;;8.80;86.40;;;;;;5048708;28;20095;-79
2022/01/09 07:02:50;;;;;;;6.45;1.60;;;8.80;85.90;;;;;;5047299;28;20543;-79
2022/01/09 07:05:16;;;;;;;8.05;2.10;;;8.80;85.90;;;;;;5048507;28;20100;-79
2022/01/09 07:07:42;;;;;;;8.57;2.40;;;8.80;86.10;;;;;;5048718;28;20025;-79
2022/01/09 07:10:09;;;;;;;6.20;1.85;;;8.70;86.30;;;;;;5050907;28;20567;-79
2022/01/09 07:12:35;;;;;;;9.95;2.28;;;8.60;86.80;;;;;;5049607;28;20017;-79
2022/01/09 07:15:02;;;;;;;6.38;2.08;;;8.60;87.20;;;;;;5048937;28;20051;-79
2022/01/09 07:17:28;;;;;;;9.20;3.13;;;8.60;88.80;;;;;;5040786;28;20025;-79
2022/01/09 07:19:53;;;;;;;8.52;2.60;;;8.40;87.30;;;;;;5048771;28;20385;-80
2022/01/09 07:22:19;;;;;;;9.15;2.80;;;8.30;87.10;;;;;;5050420;28;20055;-79
2022/01/09 07:24:45;;;;;;;12.27;3.42;;;8.40;87.10;;;;;;5055443;28;20067;-79
2022/01/09 07:27:10;;;;;;;12.43;3.83;;;8.40;84.20;;;;;;5052493;28;20041;-79
2022/01/09 07:29:36;;;;;;;8.98;3.17;;;8.50;83.60;;;;;;5050087;28;20025;-79
2022/01/09 07:32:02;;;;;;;10.75;3.97;;;8.40;81.90;;;;;;5050057;28;20021;-79
2022/01/09 07:34:28;;;;;;;8.25;3.05;;;8.40;81.50;;;;;;5049897;28;20369;-79
2022/01/09 07:36:53;;;;;;;10.27;3.50;;;8.40;81.60;;;;;;5051347;28;20031;-80
2022/01/09 07:39:19;;;;;;;10.38;3.10;;;8.60;80.00;;;;;;5049695;28;20033;-79
2022/01/09 07:41:46;;;;;;;9.02;2.75;;;8.50;78.90;;;;;;5048760;28;20094;-83
2022/01/09 07:44:11;;;;;;;8.07;2.67;;;8.60;78.00;;;;;;5048433;28;20037;-83
2022/01/09 07:46:38;;;;;;;10.20;2.65;;;8.80;77.40;;;;;;5048370;28;20098;-82
2022/01/09 07:49:03;;;;;;;10.23;3.10;;;8.90;77.10;;;;;;5049947;28;20021;-77
2022/01/09 07:51:29;;;;;;;10.65;2.92;;;9.00;77.40;;;;;;5048483;28;20028;-77
2022/01/09 07:53:55;;;;;;;8.30;2.38;;;9.10;76.10;;;;;;5047368;28;20036;-77
2022/01/09 07:56:20;;;;;;;9.55;3.10;;;9.20;75.70;;;;;;5048457;28;20025;-77
2022/01/09 07:58:46;;;;;;;8.32;2.58;;;9.30;75.00;;;;;;5048022;28;20112;-78
2022/01/09 08:01:12;;;;;;;11.02;2.55;;;9.40;75.40;;;;;;5049911;28;20037;-78
2022/01/09 08:03:37;;;;;;;8.88;2.65;;;9.40;75.50;;;;;;5049166;28;20029;-78
2022/01/09 08:06:03;;;;;;;11.05;2.67;;;9.50;76.20;;;;;;5047728;28;20048;-79
2022/01/09 08:08:29;;;;;;;9.98;2.35;;;9.60;76.50;;;;;;5049561;28;20055;-77
2022/01/09 08:10:55;;;;;;;8.98;2.00;;;9.50;76.30;;;;;;5050210;28;20092;-78
2022/01/09 08:13:21;;;;;;;10.13;2.30;;;9.60;76.50;;;;;;5049929;28;20032;-78
2022/01/09 08:15:47;;;;;;;8.25;2.30;;;9.60;76.60;;;;;;5051032;28;20021;-78
2022/01/09 08:18:13;;;;;;;7.15;2.45;;;9.70;77.40;;;;;;5050196;28;20028;-78
2022/01/09 08:20:38;;;;;;;9.65;2.33;;;9.60;79.10;;;;;;5050264;28;20025;-78
2022/01/09 08:23:04;;;;;;;9.35;2.50;;;9.70;78.90;;;;;;5049614;28;20031;-78
2022/01/09 08:25:30;;;;;;;9.75;2.30;;;9.70;78.80;;;;;;5048385;28;20452;-78
2022/01/09 08:27:56;;;;;;;11.90;3.03;;;9.80;79.60;;;;;;5051445;28;20063;-78
2022/01/09 08:30:22;;;;;;;7.00;2.08;;;10.00;79.00;;;;;;5049843;28;20025;-79
2022/01/09 08:32:51;;;;;;;14.20;2.50;;;10.00;76.70;;;;;;5049827;28;20112;-85
2022/01/09 08:35:18;;;;;;;13.52;2.78;;;10.00;76.00;;;;;;5049791;28;20033;-80
2022/01/09 08:37:44;;;;;;;7.60;2.53;;;10.00;77.50;;;;;;5049604;28;20036;-80
2022/01/09 08:40:20;;;;;;;12.00;2.50;;;10.10;77.40;;;;;;5050355;28;20017;-80
2022/01/09 08:42:46;;;;;;;11.80;2.20;;;10.10;77.20;;;;;;5049022;28;20434;-80
2022/01/09 08:45:13;;;;;;;10.30;2.08;;;10.10;77.00;;;;;;5048725;28;20021;-80
2022/01/09 08:47:39;;;;;;;9.82;2.55;;;10.00;77.90;;;;;;5049874;28;20032;-79
2022/01/09 08:50:06;;;;;;;12.60;3.40;;;9.80;78.00;;;;;;5048963;28;20032;-82
2022/01/09 08:52:32;;;;;;;11.27;3.13;;;10.00;78.30;;;;;;5048182;28;20049;-83
2022/01/09 08:54:58;;;;;;;9.32;3.90;;;10.50;77.00;;;;;;5051073;28;20049;-81
2022/01/09 08:57:25;;;;;;;12.05;4.30;;;11.10;75.30;;;;;;5049124;28;20044;-81
2022/01/09 08:59:52;;;;;;;13.90;5.05;;;11.20;75.10;;;;;;5049050;28;20041;-80
2022/01/09 09:02:17;;;;;;;20.83;7.22;;;11.30;75.20;;;;;;5049492;28;20294;-78
2022/01/09 09:04:43;;;;;;;20.02;7.38;;;11.50;75.10;;;;;;5052339;28;20028;-80
2022/01/09 09:07:09;;;;;;;16.67;4.82;;;11.50;75.20;;;;;;5053018;28;20116;-76
2022/01/09 09:09:36;;;;;;;12.68;4.00;;;11.40;75.30;;;;;;5052276;28;20032;-75
2022/01/09 09:12:03;;;;;;;16.40;5.22;;;11.50;76.00;;;;;;5053128;28;20028;-77
2022/01/09 09:14:29;;;;;;;12.70;3.88;;;11.70;74.90;;;;;;5052602;28;20025;-77
2022/01/09 09:16:55;;;;;;;10.48;4.10;;;11.70;74.60;;;;;;5052606;28;20032;-78
2022/01/09 09:19:21;;;;;;;11.68;3.10;;;11.90;74.50;;;;;;5052297;28;20025;-85
2022/01/09 09:21:47;;;;;;;7.50;2.30;;;12.00;72.90;;;;;;5052550;28;20021;-82
2022/01/09 09:24:13;;;;;;;7.97;2.58;;;12.00;73.20;;;;;;5052066;28;20029;-83
2022/01/09 09:26:39;;;;;;;10.20;2.40;;;11.90;73.50;;;;;;5051116;28;20036;-83
2022/01/09 09:29:07;;;;;;;8.48;2.25;;;12.10;73.20;;;;;;5050438;28;20014;-83
2022/01/09 09:31:33;;;;;;;7.38;2.00;;;12.10;72.80;;;;;;5050902;28;20040;-82
2022/01/09 09:34:00;;;;;;;7.80;2.15;;;12.40;72.70;;;;;;5046849;28;20017;-82
2022/01/09 09:36:26;;;;;;;7.43;2.13;;;12.60;73.20;;;;;;5049879;28;20036;-82
2022/01/09 09:38:52;;;;;;;7.47;1.92;;;13.00;72.50;;;;;;5051246;28;20487;-84
2022/01/09 09:41:24;;;;;;;7.88;2.00;;;13.40;70.80;;;;;;5052083;28;20039;-86
2022/01/09 09:43:51;;;;;;;7.95;2.53;;;13.50;69.80;;;;;;5049513;28;20029;-83
2022/01/09 09:46:20;;;;;;;8.55;2.30;;;13.50;71.20;;;;;;5050580;28;20455;-85
2022/01/09 09:48:46;;;;;;;10.38;2.00;;;13.60;70.80;;;;;;5052452;28;20071;-76
2022/01/09 09:51:12;;;;;;;8.18;2.30;;;13.70;71.20;;;;;;5051497;28;20025;-80
2022/01/09 09:53:37;;;;;;;7.72;1.85;;;13.70;68.70;;;;;;5041858;28;20184;-83
2022/01/09 09:56:03;;;;;;;10.02;2.03;;;13.40;68.60;;;;;;5043033;28;20423;-81
2022/01/09 09:58:29;;;;;;;8.05;2.17;;;13.50;70.50;;;;;;5047441;28;20056;-83
2022/01/09 10:00:56;;;;;;;6.47;1.70;;;13.40;70.70;;;;;;5042637;28;20444;-82
2022/01/09 10:03:30;;;;;;;9.25;2.10;;;13.50;71.20;;;;;;5045889;28;20067;-83
2022/01/09 10:05:56;;;;;;;6.03;2.00;;;13.90;70.50;;;;;;5043139;28;20037;-83
2022/01/09 10:08:37;;;;;;;6.93;1.70;;;14.00;68.60;;;;;;5046491;28;20056;-79
2022/01/09 10:11:17;;;;;;;6.65;1.60;;;13.70;69.00;;;;;;5039400;28;20112;-86
2022/01/09 10:13:43;;;;;;;5.63;1.70;;;13.40;67.80;;;;;;5047887;28;20518;-76
2022/01/09 10:16:10;;;;;;;7.47;2.05;;;13.30;71.80;;;;;;5044614;28;20062;-83
2022/01/09 10:18:38;;;;;;;8.40;2.50;;;13.10;71.10;;;;;;5044782;28;20040;-82
2022/01/09 10:21:06;;;;;;;9.60;2.58;;;12.90;73.30;;;;;;5045092;28;20064;-82
2022/01/09 10:23:31;;;;;;;8.70;2.60;;;12.90;74.60;;;;;;5045417;28;20037;-80
2022/01/09 10:26:12;;;;;;;9.40;3.05;;;12.90;71.40;;;;;;5048543;28;20071;-81
2022/01/09 10:28:39;;;;;;;9.98;2.60;;;12.80;71.30;;;;;;5046345;28;20063;-79
2022/01/09 10:31:15;;;;;;;12.15;2.90;;;12.80;71.00;;;;;;5054218;28;20049;-81
2022/01/09 10:33:55;;;;;;;6.75;1.85;;;12.70;70.90;;;;;;5054792;28;20065;-82
2022/01/09 10:36:39;;;;;;;5.70;1.70;;;12.60;71.10;;;;;;5049240;28;20033;-81
2022/01/09 10:39:09;;;;;;;;;;;12.50;71.90;;;;;;5046381;28;20139;-82
2022/01/09 10:42:04;;;;;;;9.00;2.22;;;12.50;72.10;;;;;;5047649;28;20395;-80
2022/01/09 10:44:37;;;;;;;10.43;2.42;;;12.40;71.50;;;;;;4988119;28;20037;-80
2022/01/09 10:47:09;;;;;;;8.23;2.28;;;12.40;74.00;;;;;;4987866;28;20100;-80
2022/01/09 10:49:43;;;;;;;6.05;1.88;;;12.40;72.80;;;;;;4984033;28;20129;-83
2022/01/09 10:52:19;;;;;;;7.72;2.08;;;12.40;72.50;;;;;;4988552;28;20031;-81
2022/01/09 10:54:46;;;;;;;6.60;1.83;;;12.40;73.00;;;;;;4988543;28;20038;-81
2022/01/09 10:57:27;;;;;;;8.15;1.98;;;12.40;73.60;;;;;;4988216;28;20026;-83
2022/01/09 10:59:53;;;;;;;40.58;25.48;;;12.20;73.60;;;;;;4988188;28;20395;-82
2022/01/09 11:02:20;;;;;;;20.83;9.25;;;12.30;74.40;;;;;;4987340;28;20038;-80
2022/01/09 11:04:48;;;;;;;7.13;2.30;;;12.30;75.00;;;;;;4987810;28;20031;-83
2022/01/09 11:07:14;;;;;;;7.95;2.40;;;12.20;73.70;;;;;;4988684;28;20390;-81
2022/01/09 11:09:47;;;;;;;11.07;3.35;;;12.10;74.50;;;;;;4988389;28;20393;-82
2022/01/09 11:12:19;;;;;;;8.13;2.15;;;12.10;74.60;;;;;;4993002;28;20185;-81
2022/01/09 11:14:48;;;;;;;7.97;1.98;;;12.20;75.60;;;;;;4989753;28;20046;-82
2022/01/09 11:17:17;;;;;;;5.43;1.67;;;12.30;76.30;;;;;;4987921;28;20038;-83
2022/01/09 11:19:43;;;;;;;3.15;1.10;;;12.30;74.40;;;;;;4988476;28;20058;-83
2022/01/09 11:22:12;;;;;;;5.68;1.38;;;12.40;73.60;;;;;;5047924;28;20482;-83
2022/01/09 11:24:44;;;;;;;7.28;2.03;;;12.40;73.70;;;;;;5049776;28;20548;-81
2022/01/09 11:27:19;;;;;;;6.70;1.60;;;12.40;73.60;;;;;;5047128;28;20083;-82
2022/01/09 11:30:14;;;;;;;5.00;1.50;;;12.30;72.70;;;;;;5047714;28;20100;-81
2022/01/09 11:33:07;;;;;;;3.70;1.42;;;12.30;73.60;;;;;;5046724;28;20037;-80
2022/01/09 11:35:54;;;;;;;5.25;1.63;;;12.30;74.00;;;;;;5047686;28;20057;-85
2022/01/09 11:39:02;;;;;;;10.98;3.95;;;12.30;73.80;;;;;;5047088;28;20047;-82
2022/01/09 11:41:30;;;;;;;12.10;6.45;;;12.30;75.50;;;;;;5034147;28;20041;-80
2022/01/09 11:44:01;;;;;;;7.05;2.88;;;12.30;76.20;;;;;;5047412;28;20521;-76
2022/01/09 11:46:29;;;;;;;27.17;16.92;;;12.30;77.00;;;;;;5049101;28;20044;-79
2022/01/09 11:48:54;;;;;;;8.70;3.17;;;12.30;75.70;;;;;;5050113;28;20075;-79
2022/01/09 11:51:25;;;;;;;37.90;25.95;;;12.30;75.10;;;;;;5049050;28;20036;-79
2022/01/09 11:54:02;;;;;;;6.95;2.70;;;12.40;75.10;;;;;;5047317;28;20033;-79
2022/01/09 11:56:47;;;;;;;6.20;2.33;;;12.50;74.30;;;;;;5048213;28;20020;-76
2022/01/09 11:59:15;;;;;;;;;;;12.60;74.80;;;;;;5040520;28;20029;-78
2022/01/09 12:01:41;;;;;;;7.35;6.07;;;12.70;74.90;;;;;;5047365;28;19912;-78
2022/01/09 12:04:32;;;;;;;6.90;2.33;;;12.80;74.50;;;;;;5050668;28;20537;-78
2022/01/09 12:06:59;;;;;;;7.18;2.50;;;12.80;72.90;;;;;;5050793;28;20063;-75
2022/01/09 12:09:32;;;;;;;7.32;3.20;;;12.90;73.10;;;;;;5047268;28;20047;-78
2022/01/09 12:12:03;;;;;;;6.43;3.25;;;12.90;72.90;;;;;;5046874;28;20025;-78
2022/01/09 12:14:56;;;;;;;8.52;3.30;;;12.90;72.70;;;;;;5047323;28;20108;-79
2022/01/09 12:17:32;;;;;;;7.85;2.90;;;12.80;72.90;;;;;;5041224;28;20108;-80
2022/01/09 12:20:05;;;;;;;6.20;2.70;;;12.80;72.80;;;;;;5046930;28;20029;-79
2022/01/09 12:22:44;;;;;;;5.43;2.50;;;12.90;73.90;;;;;;5047377;28;20033;-79
2022/01/09 12:25:10;;;;;;;9.05;2.38;;;12.90;73.70;;;;;;5049428;28;20029;-80
2022/01/09 12:27:42;;;;;;;6.35;2.45;;;12.80;74.60;;;;;;5056536;28;20518;-79
2022/01/09 12:30:11;;;;;;;4.40;1.90;;;12.80;74.70;;;;;;5046982;28;20052;-78
2022/01/09 12:32:39;;;;;;;5.57;1.60;;;12.90;74.90;;;;;;5046630;28;20048;-79
2022/01/09 12:35:18;;;;;;;6.47;2.00;;;12.90;76.70;;;;;;5046857;28;20096;-78
2022/01/09 12:37:55;;;;;;;6.20;2.05;;;12.80;77.50;;;;;;5043140;28;20033;-78
2022/01/09 12:40:25;;;;;;;7.65;2.13;;;12.70;76.80;;;;;;5052263;28;20496;-78
2022/01/09 12:42:53;;;;;;;7.15;2.38;;;12.70;78.30;;;;;;5052567;28;20097;-78
2022/01/09 12:45:21;;;;;;;7.13;2.13;;;12.60;77.20;;;;;;5050286;28;20020;-78
2022/01/09 12:47:47;;;;;;;7.10;2.17;;;12.60;78.70;;;;;;5050718;28;20032;-79
2022/01/09 12:50:13;;;;;;;5.20;2.10;;;12.50;79.60;;;;;;5051124;28;20104;-78
2022/01/09 12:52:39;;;;;;;8.65;2.10;;;12.50;78.50;;;;;;5050949;28;20102;-78